Bookmark and Share
Track history (hours):
 

Father Pat

More information available from US FCC via Universal Licensing System and Coast Guard Vessel Documentation Center.

Last reported at 2014-Apr-10 03:15 UTC. Time now 2014-Apr-23 19:00 UTC.
Position N 29°56' W 090°11'.
Warning: this ship's position is 13 days out of date.

Type: Towing. MMSI: 367519320.

NotesDate/timePositionNaut miles runAvg speedWind from/ knotsBaromVisibWave heightAir tempDewpointWater temp
2014-Apr-10 03:15N 29°56' W 090°11'5 5.5
2014-Apr-10 02:22N 29°58' W 090°16'5 6.4
2014-Apr-10 01:33N 29°56' W 090°21'1 0.6
2014-Apr-10 00:32N 29°56' W 090°22'0 0.0
2014-Apr-09 23:28N 29°56' W 090°22'13 2.1
2014-Apr-09 17:33N 30°03' W 090°34'3 1.9
2014-Apr-09 16:07N 30°02' W 090°37'0 0.2
2014-Apr-09 15:32N 30°02' W 090°37'22 5.1
2014-Apr-09 11:17N 30°07' W 091°01'4 4.9
2014-Apr-09 10:32N 30°07' W 090°57'4 2.8
2014-Apr-09 09:13N 30°04' W 090°54'3 4.2
2014-Apr-09 08:31N 30°03' W 090°51'4 4.6
2014-Apr-09 07:32N 29°59' W 090°49'5 4.8
2014-Apr-09 06:33N 30°01' W 090°44'5 4.8
2014-Apr-09 05:33N 30°03' W 090°39'4 4.4
2014-Apr-09 04:33N 30°03' W 090°34'5 4.8
2014-Apr-09 03:33N 30°02' W 090°29'3 2.6
2014-Apr-09 02:33N 29°60' W 090°28'4 4.3
2014-Apr-09 01:33N 29°58' W 090°24'33 1.5
2014-Apr-08 03:13N 29°32' W 090°48'10 5.9
2014-Apr-08 01:33N 29°36' W 090°58'6 5.5
2014-Apr-08 00:33N 29°37' W 091°04'2 2.1
2014-Apr-07 23:33N 29°37' W 091°06'1 0.7
2014-Apr-07 22:33N 29°37' W 091°06'4 3.6
2014-Apr-07 21:34N 29°40' W 091°08'4 4.3
2014-Apr-07 20:33N 29°41' W 091°13'3 3.3
2014-Apr-07 19:33N 29°39' W 091°16'9 4.6
2014-Apr-07 17:34N 29°40' W 091°27'2 1.6
2014-Apr-07 16:33N 29°41' W 091°28'0 0.3
2014-Apr-07 15:03N 29°41' W 091°29'3 5.0
2014-Apr-07 14:33N 29°40' W 091°26'5 5.4
2014-Apr-07 13:33N 29°38' W 091°20'5 5.2
2014-Apr-07 12:34N 29°40' W 091°14'4 3.9
2014-Apr-07 11:33N 29°41' W 091°10'3 2.9
2014-Apr-07 10:33N 29°39' W 091°08'3 3.3
2014-Apr-07 09:34N 29°38' W 091°04'4 3.2
2014-Apr-07 08:26N 29°37' W 091°00'3 3.9
2014-Apr-07 07:33N 29°35' W 090°58'41 1.1
2014-Apr-05 16:33N 29°57' W 090°18'7 3.7
2014-Apr-05 14:33N 29°60' W 090°26'3 2.6
2014-Apr-05 13:33N 30°01' W 090°29'3 3.0
2014-Apr-05 12:33N 30°03' W 090°32'5 5.1
2014-Apr-05 11:33N 30°02' W 090°37'5 4.9
2014-Apr-05 10:33N 30°01' W 090°43'6 5.3
2014-Apr-05 09:27N 29°59' W 090°49'5 3.9
2014-Apr-05 08:07N 30°04' W 090°52'8 1.2
2014-Apr-05 01:31N 30°07' W 090°60'  

Dump ship's entire track history

sailing weather and tide predictions

Father Pat — WDG2791 — position and weather